Página principal
METAR-TAF:

METAR-TAF

Aeroportos :

Melilla, Espanha

latitude: 35-17N, longitude: 002-57W, altura: 47 m

Observação actual do tempo

O boletim foi feito há 42 minutos, às 12:30 UTC
Vento 6 kt de es-nordeste, variando entre nor-nordeste e es-sudeste
Temperatura 28°C
Humidade 70%
Pressão 1021 hPa
Visibilidade 10 km ou mais
Poucas nuvensa uma altura de 500 ft

METAR: GEML 071230Z 07006KT 020V110 9999 FEW005 28/22 Q1021

Hora: 15:12 (13:12 UTC)

Previsão

O boletim foi feito há 2 horas e 12 minutos, às 11:00 UTC
Previsão válida de 07 às 12 UTC a 08 às 12 UTC
Vento 6 kt de este
Visibilidade 10 km ou mais
Nuvens dispersasa uma altura de 2000 ft
Probabilidade 30% :
Temporariamente
de 07 às 12 UTC a 07 às 20 UTC
Nuvens fragmentadasa uma altura de 1400 ft
Temporariamente
de 07 às 20 UTC a 08 às 10 UTC
Nuvens fragmentadasa uma altura de 800 ft

TAF: GEML 071100Z 0712/0812 09006KT 9999 SCT020 TX29/0714Z TN23/0805Z PROB30 TEMPO 0712/0720 BKN014 TEMPO 0720/0810 BKN008

Observações e previsões do tempo de mais de 4000 aeroportos (mensagens METAR e TAF).

As estações disponíveis são os pontos amarelos e vermelhos sobre o mapa.

Mova o rato sobre o mapa para ver o nome da estação.

Depois clique no ponto para visualizar as observações e previsões meteorológicas.

Para alterar o mapa : clique nos botões verdes com uma cruz preta para aumentar o zoom; no botão verde com uma pitada de zoom; ou nas setas verdes para mapas adjacentes.


METAR-TAF: